createdAt,value
2023-05-14T02:47:43.723Z,13.50
2023-05-14T02:52:37.054Z,12.50
2023-05-14T02:57:29.920Z,12.50
2023-05-14T03:02:23.281Z,11.20
2023-05-14T03:07:17.199Z,10.90
2023-05-14T03:12:10.205Z,10.40
2023-05-14T03:17:04.132Z,11.40
2023-05-14T03:21:57.020Z,11.30
2023-05-14T03:26:49.801Z,10.10
2023-05-14T03:31:43.601Z,11.00
2023-05-14T03:36:37.951Z,11.70
2023-05-14T03:41:30.801Z,10.90
2023-05-14T03:46:23.666Z,11.40
2023-05-14T03:51:16.646Z,11.10
2023-05-14T03:56:09.485Z,11.50
2023-05-14T04:01:02.381Z,10.50
2023-05-14T04:05:55.244Z,10.90
2023-05-14T04:10:48.146Z,10.90
2023-05-14T04:15:41.377Z,11.60
2023-05-14T04:20:34.443Z,10.60
2023-05-14T04:25:31.557Z,10.30
2023-05-14T04:30:24.705Z,10.60
2023-05-14T04:35:17.926Z,10.90
2023-05-14T04:40:13.833Z,9.90
2023-05-14T04:45:09.056Z,9.60
2023-05-14T04:50:01.942Z,10.10
2023-05-14T04:54:54.886Z,10.20
2023-05-14T04:59:48.080Z,9.70
2023-05-14T05:04:40.942Z,10.10
2023-05-14T05:09:33.768Z,10.40
2023-05-14T05:14:31.109Z,9.30
2023-05-14T05:19:35.855Z,8.50
2023-05-14T05:24:32.886Z,10.00
2023-05-14T05:29:28.026Z,9.10
2023-05-14T05:34:20.929Z,8.00
2023-05-14T05:39:13.813Z,8.40
2023-05-14T05:44:07.946Z,8.20
2023-05-14T05:49:00.852Z,7.60
2023-05-14T05:53:53.929Z,6.70
2023-05-14T05:58:46.764Z,7.70
2023-05-14T06:03:42.114Z,8.20
2023-05-14T06:08:35.683Z,6.90
2023-05-14T06:13:29.749Z,6.90
2023-05-14T06:18:27.722Z,7.00
2023-05-14T06:23:21.176Z,6.90
2023-05-14T06:28:15.483Z,6.60
2023-05-14T06:33:08.370Z,6.60
2023-05-14T06:38:01.795Z,5.80
2023-05-14T06:42:54.743Z,6.10
2023-05-14T06:47:47.669Z,5.50
2023-05-14T06:52:40.590Z,5.40
2023-05-14T06:57:53.494Z,4.60
2023-05-14T07:02:54.910Z,4.50
2023-05-14T07:07:55.666Z,4.60
2023-05-14T07:12:56.255Z,4.70
2023-05-14T07:18:00.331Z,4.20
2023-05-14T07:22:58.206Z,4.20
2023-05-14T07:33:38.470Z,4.10
2023-05-14T07:39:07.263Z,3.90
2023-05-14T07:44:01.363Z,4.10
2023-05-14T07:49:15.408Z,3.30
2023-05-14T07:55:21.713Z,3.90
2023-05-14T07:59:35.591Z,3.50
2023-05-14T08:04:30.559Z,3.50
2023-05-14T08:09:23.400Z,3.50
2023-05-14T08:14:16.174Z,3.30
2023-05-14T08:19:09.040Z,3.20
2023-05-14T08:24:01.957Z,3.40
2023-05-14T08:28:55.575Z,3.00
2023-05-14T08:33:48.393Z,3.00
2023-05-14T08:38:42.156Z,2.80
2023-05-14T08:43:56.537Z,2.80
2023-05-14T08:48:52.327Z,3.40
2023-05-14T08:53:45.902Z,2.90
2023-05-14T08:58:38.765Z,3.20
2023-05-14T09:03:32.380Z,2.50
2023-05-14T09:08:25.316Z,2.90
2023-05-14T09:13:18.101Z,3.20
2023-05-14T09:18:11.274Z,2.50
2023-05-14T09:23:04.252Z,2.90
2023-05-14T09:27:59.071Z,3.10
2023-05-14T09:32:55.153Z,2.80
2023-05-14T09:37:53.687Z,2.90
2023-05-14T09:42:48.273Z,2.70
2023-05-14T09:47:41.835Z,2.30
2023-05-14T09:52:35.360Z,2.30
2023-05-14T09:57:29.173Z,2.60
2023-05-14T10:02:37.632Z,2.50
2023-05-14T10:07:36.474Z,2.50
2023-05-14T10:12:33.680Z,2.60
2023-05-14T10:17:32.596Z,2.30
2023-05-14T10:22:32.170Z,2.30
2023-05-14T10:27:28.490Z,2.50
2023-05-14T10:32:24.428Z,2.50
2023-05-14T10:37:22.662Z,2.90
2023-05-14T10:42:28.370Z,2.80
2023-05-14T10:47:21.360Z,2.60
2023-05-14T10:52:14.146Z,2.50
2023-05-14T10:57:12.698Z,3.20
2023-05-14T11:02:06.766Z,2.60
2023-05-14T11:07:01.304Z,2.30
2023-05-14T11:11:54.639Z,2.40
2023-05-14T11:16:48.577Z,2.50
2023-05-14T11:21:41.435Z,2.60
2023-05-14T11:26:35.112Z,2.40
2023-05-14T11:31:29.082Z,2.40
2023-05-14T11:36:21.934Z,2.10
2023-05-14T11:41:15.896Z,2.60
2023-05-14T11:46:08.909Z,2.10
2023-05-14T11:51:01.903Z,2.80
2023-05-14T11:55:57.978Z,2.10
2023-05-14T12:00:56.718Z,2.40
2023-05-14T12:06:03.367Z,2.20
2023-05-14T12:10:56.915Z,2.40
2023-05-14T12:15:56.233Z,2.60
2023-05-14T12:20:51.401Z,2.50
2023-05-14T12:25:53.825Z,2.50
2023-05-14T12:30:47.740Z,3.20
2023-05-14T12:35:40.970Z,2.40
2023-05-14T12:40:33.756Z,2.50
2023-05-14T12:45:26.591Z,2.70
2023-05-14T12:50:19.487Z,2.10
2023-05-14T12:55:12.319Z,2.00
2023-05-14T13:00:08.120Z,2.50
2023-05-14T13:05:02.755Z,2.10
2023-05-14T13:09:55.977Z,1.90
2023-05-14T13:14:48.796Z,2.30
2023-05-14T13:19:41.585Z,2.10
2023-05-14T13:24:35.871Z,2.10
2023-05-14T13:29:29.793Z,2.30
2023-05-14T13:34:22.577Z,2.00
2023-05-14T13:39:15.435Z,2.50
2023-05-14T13:44:08.222Z,2.50
2023-05-14T13:49:00.998Z,2.60
2023-05-14T13:58:47.566Z,1.80
2023-05-14T14:03:40.380Z,2.40
2023-05-14T14:08:33.178Z,2.20
2023-05-14T14:13:26.059Z,2.20
2023-05-14T14:18:18.814Z,2.40
2023-05-14T14:23:11.665Z,2.50
2023-05-14T14:28:04.512Z,2.70
2023-05-14T14:32:57.342Z,1.80
2023-05-14T14:37:52.336Z,2.10
2023-05-14T14:42:45.709Z,2.40
2023-05-14T14:47:38.638Z,1.90
2023-05-14T14:52:31.635Z,2.10
2023-05-14T14:57:24.550Z,2.70
2023-05-14T15:02:17.431Z,2.20
2023-05-14T15:07:10.338Z,2.10
2023-05-14T15:12:03.269Z,2.30
2023-05-14T15:16:56.089Z,2.10
2023-05-14T15:21:48.996Z,2.20
2023-05-14T15:26:42.313Z,2.10
2023-05-14T15:31:35.662Z,2.40
2023-05-14T15:36:28.663Z,2.10
2023-05-14T15:41:21.529Z,2.70
2023-05-14T15:46:14.393Z,2.20
2023-05-14T15:51:07.437Z,2.40
2023-05-14T15:56:00.288Z,3.20
2023-05-14T16:00:53.166Z,2.20
2023-05-14T16:05:47.327Z,2.50
2023-05-14T16:10:40.121Z,2.20
2023-05-14T16:15:32.943Z,2.40
2023-05-14T16:20:25.891Z,2.40
2023-05-14T16:25:19.646Z,2.50
2023-05-14T16:30:12.712Z,2.60
2023-05-14T16:35:05.864Z,2.40
2023-05-14T16:39:59.008Z,3.00
2023-05-14T16:44:52.193Z,2.50
2023-05-14T16:49:45.019Z,2.60
2023-05-14T16:54:37.895Z,2.30
2023-05-14T16:59:30.788Z,2.50
2023-05-14T17:04:25.276Z,2.60
2023-05-14T17:09:18.088Z,2.90
2023-05-14T17:14:10.978Z,2.50
2023-05-14T17:19:04.080Z,2.30
2023-05-14T17:23:56.918Z,2.50
2023-05-14T17:28:49.795Z,3.30
2023-05-14T17:33:43.156Z,3.00
2023-05-14T17:38:36.515Z,2.70
2023-05-14T17:43:29.378Z,3.70
2023-05-14T17:48:22.572Z,3.10
2023-05-14T17:53:15.692Z,3.80
2023-05-14T17:58:08.476Z,3.00
2023-05-14T18:03:01.392Z,2.60
2023-05-14T18:07:55.319Z,2.70
2023-05-14T18:12:48.245Z,3.30
2023-05-14T18:17:41.109Z,3.50
2023-05-14T18:22:34.785Z,8.60
2023-05-14T18:27:27.629Z,5.50
2023-05-14T18:32:21.242Z,4.30
2023-05-14T18:37:14.490Z,4.40
2023-05-14T18:42:07.960Z,4.60
2023-05-14T18:47:00.979Z,4.90
2023-05-14T18:51:53.977Z,3.90
2023-05-14T18:56:47.734Z,3.90
2023-05-14T19:01:41.102Z,4.20
2023-05-14T19:06:34.097Z,3.70
2023-05-14T19:11:26.928Z,5.80
2023-05-14T19:16:19.945Z,3.70
2023-05-14T19:21:14.964Z,3.70
2023-05-14T19:26:08.406Z,4.00
2023-05-14T19:31:01.264Z,4.00
2023-05-14T19:35:54.189Z,4.00
2023-05-14T19:40:46.992Z,3.70
2023-05-14T19:45:40.068Z,3.60
2023-05-14T19:50:33.532Z,5.00
2023-05-14T19:55:26.536Z,4.40
2023-05-14T20:00:19.618Z,4.30
2023-05-14T20:05:12.548Z,4.10
2023-05-14T20:10:05.594Z,5.20
2023-05-14T20:14:58.380Z,4.40
2023-05-14T20:19:52.362Z,4.50
2023-05-14T20:24:45.665Z,5.30
2023-05-14T20:29:38.780Z,5.20
2023-05-14T20:34:31.588Z,5.00
2023-05-14T20:39:25.148Z,5.70
2023-05-14T20:44:19.855Z,6.20
2023-05-14T20:49:13.303Z,5.70
2023-05-14T20:54:06.310Z,6.90
2023-05-14T20:59:00.396Z,6.40
2023-05-14T21:03:53.363Z,5.80
2023-05-14T21:08:46.399Z,7.80
2023-05-14T21:13:39.205Z,6.90
2023-05-14T21:18:33.025Z,6.40
2023-05-14T21:23:25.854Z,7.00
2023-05-14T21:28:18.650Z,7.90
2023-05-14T21:33:11.503Z,6.70
2023-05-14T21:38:04.439Z,7.10
2023-05-14T21:42:57.523Z,7.00
2023-05-14T21:47:50.788Z,6.30
2023-05-14T21:52:43.757Z,6.60
2023-05-14T21:57:36.732Z,7.10
2023-05-14T22:02:29.547Z,7.10
2023-05-14T22:07:22.486Z,6.50
2023-05-14T22:12:15.309Z,6.40
2023-05-14T22:17:08.478Z,6.30
2023-05-14T22:22:01.265Z,7.50
2023-05-14T22:26:54.132Z,6.20
2023-05-14T22:31:46.979Z,6.30
2023-05-14T22:36:39.847Z,5.80
2023-05-14T22:41:32.650Z,4.50
2023-05-14T22:46:25.559Z,5.30
2023-05-14T22:51:18.404Z,5.60
2023-05-14T22:56:11.480Z,5.30
2023-05-14T23:01:04.696Z,4.70
2023-05-14T23:05:57.605Z,4.40
2023-05-14T23:10:50.489Z,4.70
2023-05-14T23:15:44.151Z,5.00
2023-05-14T23:20:37.053Z,4.70
2023-05-14T23:25:30.140Z,3.50
2023-05-14T23:30:23.007Z,4.00
2023-05-14T23:35:15.963Z,3.60
2023-05-14T23:40:10.009Z,3.40
2023-05-14T23:45:02.851Z,4.20
2023-05-14T23:49:55.679Z,3.40
2023-05-14T23:54:48.461Z,3.20
2023-05-14T23:59:41.294Z,3.30
